Time;durP1;ratioP1;P1;durP2;ratioP2;P2;SDS_P1;SDS_P2;PMS_P1;PMS_P2;Temp;Humidity;BMP_temperature;BMP_pressure;BME280_temperature;BME280_humidity;BME280_pressure;Samples;Min_cycle;Max_cycle;Signal;HPM_P1;HPM_P2
2021/12/13 08:51:20;;;;;;;3.08;2.70;;;;;;;;;;6202392;22;20028;-87
2021/12/13 08:53:58;;;;;;;3.80;2.63;;;;;;;;;;6247500;23;20039;-90
2021/12/13 08:56:23;;;;;;;4.15;3.03;;;;;;;;;;6246680;23;20008;-86
2021/12/13 08:59:05;;;;;;;4.82;2.83;;;;;;;;;;6246844;23;20130;-83
2021/12/13 09:01:47;;;;;;;4.03;2.63;;;;;;;;;;6246916;23;20065;-86
2021/12/13 09:04:26;;;;;;;3.53;2.40;;;;;;;;;;6246979;23;20079;-86
2021/12/13 09:06:56;;;;;;;4.00;2.47;;;;;;;;;;6246703;23;20033;-90
2021/12/13 09:09:22;;;;;;;6.18;3.13;;;;;;;;;;6247789;23;20425;-92
2021/12/13 09:12:07;;;;;;;7.80;2.97;;;;;;;;;;6247323;23;20403;-89
2021/12/13 09:59:12;;;;;;;4.18;2.92;;;;;;;;;;6211650;22;20447;-96
2021/12/13 10:01:39;;;;;;;6.47;3.13;;;;;;;;;;6200813;23;20015;-90
2021/12/13 10:04:13;;;;;;;5.45;3.40;;;;;;;;;;6217558;23;20000;-89
2021/12/13 10:06:52;;;;;;;4.07;3.13;;;;;;;;;;6218223;23;20015;-92
2021/12/13 10:09:27;;;;;;;5.20;4.32;;;;;;;;;;6219824;23;20431;-87
2021/12/13 10:12:06;;;;;;;3.45;2.92;;;;;;;;;;6218100;23;20001;-93
2021/12/13 10:14:41;;;;;;;3.97;3.67;;;;;;;;;;6217853;23;20001;-91
2021/12/13 10:17:09;;;;;;;6.93;4.03;;;;;;;;;;6217532;23;20234;-87
2021/12/13 10:19:42;;;;;;;4.03;3.72;;;;;;;;;;6217968;23;20083;-89
2021/12/13 10:22:09;;;;;;;3.92;3.63;;;;;;;;;;6217231;23;20009;-87
2021/12/13 10:24:47;;;;;;;4.50;3.65;;;;;;;;;;6218586;23;20001;-85
2021/12/13 10:27:14;;;;;;;7.22;3.92;;;;;;;;;;6216879;23;20115;-89
2021/12/13 10:29:46;;;;;;;4.95;4.55;;;;;;;;;;6218677;23;20001;-89
2021/12/13 10:32:24;;;;;;;4.72;4.28;;;;;;;;;;6217127;23;20031;-90
2021/12/13 10:35:00;;;;;;;3.88;3.58;;;;;;;;;;6218478;23;20443;-90
2021/12/13 10:37:38;;;;;;;3.88;3.42;;;;;;;;;;6217489;23;19996;-88
2021/12/13 10:40:22;;;;;;;3.80;3.50;;;;;;;;;;6217574;23;20001;-89
2021/12/13 10:42:53;;;;;;;4.63;4.05;;;;;;;;;;6217399;23;20012;-90
2021/12/13 10:45:24;;;;;;;5.00;4.50;;;;;;;;;;6218597;23;20004;-90
2021/12/13 10:47:53;;;;;;;4.20;3.80;;;;;;;;;;6217449;23;20087;-90
2021/12/13 10:50:43;;;;;;;4.60;3.92;;;;;;;;;;6219268;23;19997;-88
2021/12/13 10:53:12;;;;;;;3.90;3.47;;;;;;;;;;6218624;23;20001;-90
2021/12/13 10:55:52;;;;;;;4.32;4.03;;;;;;;;;;6218671;23;20494;-89
2021/12/13 10:58:22;;;;;;;3.78;3.47;;;;;;;;;;6217125;23;20008;-89
2021/12/13 11:00:55;;;;;;;3.72;3.47;;;;;;;;;;6217132;23;20048;-88
2021/12/13 11:03:22;;;;;;;3.67;3.10;;;;;;;;;;6217315;23;20001;-90
2021/12/13 11:05:49;;;;;;;3.42;3.03;;;;;;;;;;6217169;23;20079;-90
2021/12/13 11:08:17;;;;;;;3.72;3.42;;;;;;;;;;6217244;23;20035;-86
2021/12/13 11:10:47;;;;;;;2.95;2.65;;;;;;;;;;6216721;23;20431;-87
2021/12/13 11:13:13;;;;;;;2.95;2.63;;;;;;;;;;6217943;23;20371;-88
2021/12/13 11:15:42;;;;;;;2.58;2.20;;;;;;;;;;6218467;23;20000;-88
2021/12/13 11:18:11;;;;;;;2.72;2.50;;;;;;;;;;6216705;23;20139;-87
2021/12/13 11:20:44;;;;;;;2.58;2.38;;;;;;;;;;6216543;23;20490;-91
2021/12/13 11:23:12;;;;;;;2.90;2.05;;;;;;;;;;6216674;23;20000;-85
2021/12/13 11:25:42;;;;;;;3.05;2.10;;;;;;;;;;6216354;23;20016;-91
2021/12/13 11:28:08;;;;;;;2.65;2.03;;;;;;;;;;6217751;23;20004;-90
2021/12/13 11:30:36;;;;;;;3.22;2.35;;;;;;;;;;6216838;23;20005;-86
2021/12/13 11:33:39;;;;;;;3.72;2.28;;;;;;;;;;6216541;23;19996;-89
2021/12/13 11:36:08;;;;;;;2.85;2.22;;;;;;;;;;6217693;23;20096;-88
2021/12/13 11:38:52;;;;;;;2.63;2.28;;;;;;;;;;6216354;23;20059;-85
2021/12/13 11:41:27;;;;;;;3.40;2.30;;;;;;;;;;6220138;23;20009;-88
2021/12/13 11:43:58;;;;;;;2.85;2.00;;;;;;;;;;6218748;23;20008;-86
2021/12/13 11:46:27;;;;;;;2.35;2.10;;;;;;;;;;6217645;23;20024;-88
2021/12/13 11:49:34;;;;;;;2.35;2.15;;;;;;;;;;6219945;23;20008;-93
2021/12/13 11:52:15;;;;;;;3.15;2.03;;;;;;;;;;6217817;23;20008;-92
2021/12/13 11:55:02;;;;;;;2.47;2.00;;;;;;;;;;6217355;23;20009;-92
2021/12/13 11:57:46;;;;;;;2.65;2.33;;;;;;;;;;6216884;23;20009;-88
2021/12/13 12:00:56;;;;;;;2.90;2.30;;;;;;;;;;6216822;23;20023;-89
2021/12/13 12:03:53;;;;;;;2.67;2.45;;;;;;;;;;6216655;23;20029;-88
2021/12/13 12:06:19;;;;;;;2.80;1.73;;;;;;;;;;6216508;23;20009;-91
2021/12/13 12:09:16;;;;;;;5.57;2.05;;;;;;;;;;6216514;23;20336;-92
2021/12/13 12:12:04;;;;;;;2.08;1.88;;;;;;;;;;6216477;23;20008;-89
2021/12/13 12:14:29;;;;;;;4.47;3.13;;;;;;;;;;6216448;23;20035;-89
2021/12/13 12:16:58;;;;;;;2.33;1.77;;;;;;;;;;6216717;23;20044;-88
2021/12/13 12:19:30;;;;;;;2.63;2.43;;;;;;;;;;6216471;23;20091;-88
2021/12/13 12:22:05;;;;;;;2.35;1.90;;;;;;;;;;6216214;23;20242;-91
2021/12/13 12:24:39;;;;;;;2.72;2.05;;;;;;;;;;6216443;23;20092;-89
2021/12/13 12:27:18;;;;;;;3.83;2.55;;;;;;;;;;6215848;23;20008;-88
2021/12/13 12:29:47;;;;;;;2.50;2.08;;;;;;;;;;6215731;23;20009;-88
2021/12/13 12:32:31;;;;;;;2.40;2.20;;;;;;;;;;6215636;23;20455;-88
2021/12/13 12:35:12;;;;;;;4.22;2.65;;;;;;;;;;6217196;23;20056;-91
2021/12/13 12:38:03;;;;;;;4.95;2.35;;;;;;;;;;6217280;23;20009;-88
2021/12/13 12:40:40;;;;;;;3.75;2.58;;;;;;;;;;6216644;23;20009;-89
2021/12/13 12:43:13;;;;;;;3.50;3.10;;;;;;;;;;6216441;23;20448;-89
2021/12/13 12:45:49;;;;;;;3.88;3.35;;;;;;;;;;6216929;23;20014;-92
2021/12/13 12:48:33;;;;;;;5.10;3.75;;;;;;;;;;6217041;23;20130;-90
2021/12/13 17:33:50;;;;;;;15.50;8.50;;;;;;;;;;6192377;23;20362;-86
2021/12/13 17:36:16;;;;;;;14.82;10.98;;;;;;;;;;6246315;23;20344;-84
2021/12/13 17:38:56;;;;;;;14.45;8.55;;;;;;;;;;6246557;23;20027;-87
2021/12/13 17:41:22;;;;;;;12.10;8.07;;;;;;;;;;6246165;23;20034;-85
2021/12/13 17:43:47;;;;;;;12.32;7.85;;;;;;;;;;6246654;23;20000;-82
2021/12/13 17:46:18;;;;;;;10.73;6.45;;;;;;;;;;6246648;23;20006;-86
2021/12/13 17:48:49;;;;;;;13.60;6.43;;;;;;;;;;6246401;23;20050;-86
2021/12/13 17:51:21;;;;;;;14.13;7.32;;;;;;;;;;6246011;23;20062;-87
2021/12/13 17:53:59;;;;;;;11.52;7.50;;;;;;;;;;6246725;23;20445;-87
2021/12/13 17:56:35;;;;;;;13.25;8.23;;;;;;;;;;6246226;23;20004;-87
2021/12/13 17:59:08;;;;;;;11.40;8.75;;;;;;;;;;6246042;23;20328;-86
2021/12/13 18:01:38;;;;;;;13.00;8.95;;;;;;;;;;6246505;23;20070;-83
2021/12/13 18:04:12;;;;;;;22.60;12.95;;;;;;;;;;6246368;23;20004;-86
2021/12/13 18:06:45;;;;;;;18.33;11.50;;;;;;;;;;6246559;23;20004;-83
2021/12/13 18:09:22;;;;;;;19.55;11.55;;;;;;;;;;6246207;23;20008;-86
2021/12/13 18:12:06;;;;;;;25.02;16.35;;;;;;;;;;6246100;23;20083;-84
2021/12/13 18:14:40;;;;;;;38.78;24.63;;;;;;;;;;6246198;23;20010;-87
2021/12/13 18:17:28;;;;;;;27.20;17.73;;;;;;;;;;6246419;23;20007;-86
2021/12/13 18:20:07;;;;;;;17.00;13.02;;;;;;;;;;6227193;23;20004;-85
2021/12/13 18:23:03;;;;;;;18.98;13.25;;;;;;;;;;6246319;23;20004;-86
2021/12/13 18:25:28;;;;;;;24.60;17.13;;;;;;;;;;6246216;23;20008;-84
2021/12/13 18:28:00;;;;;;;20.77;14.25;;;;;;;;;;6247806;23;20007;-81
2021/12/13 18:30:28;;;;;;;21.80;13.60;;;;;;;;;;6248132;23;20014;-87
2021/12/13 18:32:58;;;;;;;11.30;8.68;;;;;;;;;;6247885;23;20012;-81
2021/12/13 18:35:29;;;;;;;12.93;9.50;;;;;;;;;;6248472;23;20035;-81
2021/12/13 18:38:00;;;;;;;15.15;9.95;;;;;;;;;;6248566;23;20007;-88
2021/12/13 18:40:27;;;;;;;16.15;10.18;;;;;;;;;;6251872;23;20004;-85
2021/12/13 18:43:03;;;;;;;15.15;9.88;;;;;;;;;;6248651;23;20027;-85
2021/12/13 18:45:33;;;;;;;12.20;9.10;;;;;;;;;;6247774;23;20030;-84
2021/12/13 18:48:03;;;;;;;13.73;9.45;;;;;;;;;;6248291;23;20001;-81
2021/12/13 18:50:31;;;;;;;15.98;10.55;;;;;;;;;;6247898;23;20362;-84
2021/12/13 18:53:12;;;;;;;22.08;13.43;;;;;;;;;;6246713;23;20062;-89
2021/12/13 18:55:40;;;;;;;18.08;12.10;;;;;;;;;;6247221;23;20004;-82
2021/12/13 18:58:10;;;;;;;17.83;12.10;;;;;;;;;;6247924;23;20004;-85
2021/12/13 19:00:53;;;;;;;14.35;11.95;;;;;;;;;;6247716;23;20059;-83
2021/12/13 19:03:22;;;;;;;14.88;10.07;;;;;;;;;;6220865;23;20077;-88
2021/12/13 19:06:00;;;;;;;85.13;42.60;;;;;;;;;;6220796;23;20004;-88
2021/12/13 19:08:41;;;;;;;15.82;10.88;;;;;;;;;;6247780;23;20000;-81
2021/12/13 19:11:30;;;;;;;118.43;57.65;;;;;;;;;;6220377;23;20443;-87
2021/12/13 19:14:07;;;;;;;56.85;30.05;;;;;;;;;;6247693;23;20008;-87
2021/12/13 19:16:41;;;;;;;18.25;12.70;;;;;;;;;;6247508;23;20011;-82
2021/12/13 19:19:38;;;;;;;42.60;24.30;;;;;;;;;;6247613;23;20004;-85
2021/12/13 19:22:10;;;;;;;19.20;12.90;;;;;;;;;;6223356;23;20004;-84
2021/12/13 19:24:39;;;;;;;144.00;65.70;;;;;;;;;;6220689;23;20008;-85
2021/12/13 19:27:36;;;;;;;60.47;30.02;;;;;;;;;;6247454;23;20004;-85
2021/12/13 19:30:14;;;;;;;17.42;10.90;;;;;;;;;;6247287;23;20015;-84
2021/12/13 19:32:47;;;;;;;10.38;7.47;;;;;;;;;;6247416;23;20008;-85
2021/12/13 19:35:23;;;;;;;22.38;10.25;;;;;;;;;;6247395;23;20019;-82
2021/12/13 19:37:53;;;;;;;26.75;13.07;;;;;;;;;;6246765;23;20384;-83
2021/12/13 19:40:34;;;;;;;17.70;10.05;;;;;;;;;;6220202;23;20323;-83
2021/12/13 19:43:08;;;;;;;13.68;8.45;;;;;;;;;;6247485;23;20004;-81
2021/12/13 19:45:48;;;;;;;28.15;12.75;;;;;;;;;;6247626;23;20053;-83
2021/12/13 19:48:26;;;;;;;;;;;;;;;;;;6220985;23;20011;-84
2021/12/13 19:51:00;;;;;;;16.60;10.25;;;;;;;;;;6247428;23;19903;-82
2021/12/13 19:53:31;;;;;;;27.02;15.45;;;;;;;;;;6247281;23;20000;-84
2021/12/13 19:56:00;;;;;;;26.00;13.77;;;;;;;;;;6247570;23;20031;-82
2021/12/13 19:58:34;;;;;;;42.17;27.73;;;;;;;;;;6247332;23;20000;-83
2021/12/13 20:01:23;;;;;;;29.13;18.38;;;;;;;;;;6220684;23;20334;-84
2021/12/13 20:04:06;;;;;;;21.67;15.00;;;;;;;;;;6220480;23;20012;-86
2021/12/13 20:06:59;;;;;;;15.95;9.70;;;;;;;;;;6247695;23;20234;-86
2021/12/13 20:09:37;;;;;;;16.35;11.68;;;;;;;;;;6247854;23;19996;-87
2021/12/13 20:12:17;;;;;;;12.35;8.10;;;;;;;;;;6247685;23;20074;-83
2021/12/13 20:14:47;;;;;;;9.85;7.60;;;;;;;;;;6247059;23;20315;-89
2021/12/13 20:17:22;;;;;;;11.60;7.55;;;;;;;;;;6246923;23;20001;-87
2021/12/13 20:20:13;;;;;;;17.08;9.30;;;;;;;;;;6220474;23;20000;-86
2021/12/13 20:22:44;;;;;;;15.73;10.35;;;;;;;;;;6220181;23;20016;-86
2021/12/13 20:25:19;;;;;;;11.73;7.50;;;;;;;;;;6247184;23;19996;-87
2021/12/13 20:27:59;;;;;;;13.30;9.27;;;;;;;;;;6246874;23;20004;-87
2021/12/13 20:30:54;;;;;;;13.70;9.77;;;;;;;;;;6247100;23;20000;-88
2021/12/13 20:33:31;;;;;;;11.18;9.32;;;;;;;;;;6206568;23;20043;-84
2021/12/13 20:36:11;;;;;;;13.93;8.32;;;;;;;;;;6247034;23;20016;-87
2021/12/13 20:38:39;;;;;;;;;;;;;;;;;;6247544;23;20331;-86
2021/12/13 20:41:11;;;;;;;9.05;7.38;;;;;;;;;;6247186;23;19911;-86
2021/12/13 20:44:00;;;;;;;11.52;8.50;;;;;;;;;;6247033;23;20047;-85
2021/12/13 20:46:48;;;;;;;17.92;11.52;;;;;;;;;;6246979;23;20000;-87
2021/12/13 20:49:19;;;;;;;17.52;11.68;;;;;;;;;;6245778;23;20078;-86
2021/12/13 20:52:24;;;;;;;16.85;11.38;;;;;;;;;;6246737;23;20030;-85
2021/12/13 20:55:16;;;;;;;16.10;10.88;;;;;;;;;;6241047;23;20004;-85
2021/12/13 20:57:49;;;;;;;16.40;10.52;;;;;;;;;;6247012;23;20004;-86
2021/12/13 21:00:33;;;;;;;14.73;10.65;;;;;;;;;;6246728;23;20000;-85
2021/12/13 21:03:07;;;;;;;14.80;9.52;;;;;;;;;;6246924;23;20431;-90
2021/12/13 21:05:46;;;;;;;16.05;10.25;;;;;;;;;;6221192;23;20000;-86
2021/12/13 21:08:15;;;;;;;14.23;10.48;;;;;;;;;;6247191;23;20038;-90
2021/12/13 21:10:47;;;;;;;14.27;10.30;;;;;;;;;;6246745;23;20015;-88
2021/12/13 21:13:17;;;;;;;16.90;10.93;;;;;;;;;;6220253;23;20004;-85
2021/12/13 21:16:04;;;;;;;15.68;9.85;;;;;;;;;;6246617;23;20019;-86
2021/12/13 21:18:36;;;;;;;11.32;8.20;;;;;;;;;;6247007;23;20050;-84
2021/12/13 21:21:14;;;;;;;13.65;10.13;;;;;;;;;;6246618;23;20001;-84
2021/12/13 21:23:45;;;;;;;27.05;23.70;;;;;;;;;;6220349;23;20083;-84
2021/12/13 21:26:16;;;;;;;13.00;10.10;;;;;;;;;;6219863;23;20000;-90
2021/12/13 21:28:45;;;;;;;13.75;10.05;;;;;;;;;;6246995;23;20366;-89
2021/12/13 21:31:21;;;;;;;15.87;10.10;;;;;;;;;;6220021;23;20000;-85
2021/12/13 21:34:28;;;;;;;16.63;11.38;;;;;;;;;;6219465;23;20070;-88
2021/12/13 21:39:46;;;;;;;13.27;8.93;;;;;;;;;;6246804;23;20016;-89
2021/12/13 21:42:25;;;;;;;14.02;9.20;;;;;;;;;;6246483;23;20006;-87
2021/12/13 21:44:57;;;;;;;12.43;8.25;;;;;;;;;;6246657;23;20008;-86
2021/12/13 21:47:28;;;;;;;17.38;12.18;;;;;;;;;;6246660;23;20000;-87
2021/12/13 21:49:56;;;;;;;13.70;9.80;;;;;;;;;;6246921;23;20000;-87
2021/12/13 21:52:39;;;;;;;12.52;8.50;;;;;;;;;;6246694;23;20000;-91
2021/12/13 21:55:21;;;;;;;12.75;8.55;;;;;;;;;;6246245;23;20023;-88
2021/12/13 21:58:04;;;;;;;18.95;13.40;;;;;;;;;;6220040;23;20012;-90
2021/12/13 22:00:37;;;;;;;13.05;8.90;;;;;;;;;;6246350;23;20008;-87
2021/12/13 22:03:06;;;;;;;10.15;7.53;;;;;;;;;;6248479;23;20443;-89
2021/12/13 22:05:40;;;;;;;11.80;8.02;;;;;;;;;;6248623;23;19996;-86
2021/12/13 22:08:11;;;;;;;11.73;7.03;;;;;;;;;;6248759;23;20007;-89
2021/12/13 22:10:45;;;;;;;13.10;8.73;;;;;;;;;;6248566;23;20011;-88
2021/12/13 22:13:18;;;;;;;14.65;11.50;;;;;;;;;;6248808;23;20427;-89
2021/12/13 22:15:52;;;;;;;16.73;11.60;;;;;;;;;;6221679;23;20012;-88
2021/12/13 22:18:20;;;;;;;13.10;9.57;;;;;;;;;;6248636;23;20004;-88
2021/12/13 22:20:59;;;;;;;12.38;8.90;;;;;;;;;;6248529;23;20000;-88
2021/12/13 22:23:31;;;;;;;12.93;9.33;;;;;;;;;;6248522;23;20028;-88
2021/12/13 22:25:58;;;;;;;12.65;8.85;;;;;;;;;;6248364;23;20221;-88
2021/12/13 22:28:32;;;;;;;10.73;8.50;;;;;;;;;;6248513;23;20000;-88
2021/12/13 22:30:59;;;;;;;10.50;7.75;;;;;;;;;;6248279;23;20383;-89
2021/12/13 22:33:28;;;;;;;11.30;8.27;;;;;;;;;;6248268;23;20019;-86
2021/12/13 22:35:57;;;;;;;10.75;7.68;;;;;;;;;;6248190;23;20004;-86
2021/12/13 22:38:32;;;;;;;12.30;7.43;;;;;;;;;;6221668;23;20000;-89
2021/12/13 22:41:03;;;;;;;10.55;7.85;;;;;;;;;;6247915;23;20004;-90
2021/12/13 22:43:52;;;;;;;11.88;7.38;;;;;;;;;;6221470;23;20004;-88
2021/12/13 22:46:25;;;;;;;10.90;7.20;;;;;;;;;;6221667;23;20419;-90
2021/12/13 22:48:57;;;;;;;10.40;7.43;;;;;;;;;;6248100;23;20362;-87
2021/12/13 22:51:23;;;;;;;11.48;8.25;;;;;;;;;;6221113;23;20396;-88
2021/12/13 22:53:50;;;;;;;14.95;8.23;;;;;;;;;;6247951;23;20001;-88
2021/12/13 22:56:16;;;;;;;11.40;8.05;;;;;;;;;;6248575;23;20010;-85
2021/12/13 22:58:51;;;;;;;13.30;8.70;;;;;;;;;;6247696;23;19996;-85
2021/12/13 23:01:30;;;;;;;12.75;9.10;;;;;;;;;;6247945;23;20007;-87
2021/12/13 23:04:02;;;;;;;11.05;8.15;;;;;;;;;;6247686;23;20073;-83
2021/12/13 23:06:29;;;;;;;13.82;8.15;;;;;;;;;;6247630;23;20062;-87
2021/12/13 23:09:22;;;;;;;13.18;8.60;;;;;;;;;;6247568;23;20027;-88
2021/12/13 23:11:52;;;;;;;12.25;7.78;;;;;;;;;;6247728;23;20031;-87
